sensor_id;sensor_type;location;lat;lon;timestamp;temperature;humidity
49124;DHT22;48506;48.202;16.274;2023-09-30T00:02:00;16.50;95.00
49124;DHT22;48506;48.202;16.274;2023-09-30T00:04:26;16.50;94.90
49124;DHT22;48506;48.202;16.274;2023-09-30T00:06:53;16.50;95.00
49124;DHT22;48506;48.202;16.274;2023-09-30T00:09:19;16.50;95.10
49124;DHT22;48506;48.202;16.274;2023-09-30T00:11:46;16.60;95.10
49124;DHT22;48506;48.202;16.274;2023-09-30T00:14:12;16.50;95.20
49124;DHT22;48506;48.202;16.274;2023-09-30T00:16:38;16.50;95.30
49124;DHT22;48506;48.202;16.274;2023-09-30T00:19:04;16.40;95.40
49124;DHT22;48506;48.202;16.274;2023-09-30T00:21:30;16.40;95.60
49124;DHT22;48506;48.202;16.274;2023-09-30T00:23:56;16.30;95.70
49124;DHT22;48506;48.202;16.274;2023-09-30T00:26:22;16.30;95.80
49124;DHT22;48506;48.202;16.274;2023-09-30T00:28:48;16.40;95.90
49124;DHT22;48506;48.202;16.274;2023-09-30T00:31:14;16.40;96.10
49124;DHT22;48506;48.202;16.274;2023-09-30T00:33:40;16.40;96.20
49124;DHT22;48506;48.202;16.274;2023-09-30T00:36:08;16.50;96.30
49124;DHT22;48506;48.202;16.274;2023-09-30T00:38:36;16.60;96.30
49124;DHT22;48506;48.202;16.274;2023-09-30T00:41:02;16.60;96.30
49124;DHT22;48506;48.202;16.274;2023-09-30T00:43:28;16.70;96.30
49124;DHT22;48506;48.202;16.274;2023-09-30T00:48:29;16.70;96.40
49124;DHT22;48506;48.202;16.274;2023-09-30T00:50:56;16.80;96.30
49124;DHT22;48506;48.202;16.274;2023-09-30T00:53:23;16.80;96.30
49124;DHT22;48506;48.202;16.274;2023-09-30T00:55:50;16.80;96.40
49124;DHT22;48506;48.202;16.274;2023-09-30T00:58:17;16.80;96.30
49124;DHT22;48506;48.202;16.274;2023-09-30T01:00:43;16.80;96.40
49124;DHT22;48506;48.202;16.274;2023-09-30T01:03:10;16.80;96.40
49124;DHT22;48506;48.202;16.274;2023-09-30T01:05:36;16.80;96.40
49124;DHT22;48506;48.202;16.274;2023-09-30T01:08:03;16.70;96.40
49124;DHT22;48506;48.202;16.274;2023-09-30T01:10:29;16.70;96.40
49124;DHT22;48506;48.202;16.274;2023-09-30T01:12:56;16.60;96.40
49124;DHT22;48506;48.202;16.274;2023-09-30T01:15:22;16.60;96.50
49124;DHT22;48506;48.202;16.274;2023-09-30T01:17:48;16.60;96.40
49124;DHT22;48506;48.202;16.274;2023-09-30T01:20:15;16.60;96.40
49124;DHT22;48506;48.202;16.274;2023-09-30T01:22:42;16.60;96.50
49124;DHT22;48506;48.202;16.274;2023-09-30T01:25:11;16.60;96.60
49124;DHT22;48506;48.202;16.274;2023-09-30T01:27:37;16.70;96.70
49124;DHT22;48506;48.202;16.274;2023-09-30T01:30:03;16.70;96.80
49124;DHT22;48506;48.202;16.274;2023-09-30T01:32:29;16.80;96.90
49124;DHT22;48506;48.202;16.274;2023-09-30T01:34:56;16.90;96.90
49124;DHT22;48506;48.202;16.274;2023-09-30T01:37:22;17.00;96.90
49124;DHT22;48506;48.202;16.274;2023-09-30T01:39:48;17.10;97.00
49124;DHT22;48506;48.202;16.274;2023-09-30T01:42:16;17.20;97.00
49124;DHT22;48506;48.202;16.274;2023-09-30T01:44:42;17.40;96.90
49124;DHT22;48506;48.202;16.274;2023-09-30T01:47:08;17.50;96.70
49124;DHT22;48506;48.202;16.274;2023-09-30T01:49:34;17.70;96.60
49124;DHT22;48506;48.202;16.274;2023-09-30T01:52:01;17.80;96.40
49124;DHT22;48506;48.202;16.274;2023-09-30T01:54:26;18.00;96.10
49124;DHT22;48506;48.202;16.274;2023-09-30T01:56:52;18.10;96.00
49124;DHT22;48506;48.202;16.274;2023-09-30T01:59:18;18.20;95.80
49124;DHT22;48506;48.202;16.274;2023-09-30T02:01:44;18.30;95.70
49124;DHT22;48506;48.202;16.274;2023-09-30T02:04:12;18.30;95.60
49124;DHT22;48506;48.202;16.274;2023-09-30T02:06:41;18.30;95.60
49124;DHT22;48506;48.202;16.274;2023-09-30T02:09:08;18.30;95.40
49124;DHT22;48506;48.202;16.274;2023-09-30T02:11:35;18.30;95.50
49124;DHT22;48506;48.202;16.274;2023-09-30T02:14:03;18.30;95.50
49124;DHT22;48506;48.202;16.274;2023-09-30T02:16:29;18.30;95.60
49124;DHT22;48506;48.202;16.274;2023-09-30T02:18:55;18.30;95.50
49124;DHT22;48506;48.202;16.274;2023-09-30T02:21:22;18.40;95.50
49124;DHT22;48506;48.202;16.274;2023-09-30T02:23:48;18.40;95.50
49124;DHT22;48506;48.202;16.274;2023-09-30T02:26:15;18.50;95.40
49124;DHT22;48506;48.202;16.274;2023-09-30T02:28:41;18.60;95.30
49124;DHT22;48506;48.202;16.274;2023-09-30T02:31:07;18.70;95.00
49124;DHT22;48506;48.202;16.274;2023-09-30T02:33:33;18.90;94.80
49124;DHT22;48506;48.202;16.274;2023-09-30T02:36:03;19.10;94.80
49124;DHT22;48506;48.202;16.274;2023-09-30T02:38:32;19.20;94.40
49124;DHT22;48506;48.202;16.274;2023-09-30T02:40:58;19.40;94.20
49124;DHT22;48506;48.202;16.274;2023-09-30T02:43:25;19.50;94.00
49124;DHT22;48506;48.202;16.274;2023-09-30T02:45:51;19.60;93.70
49124;DHT22;48506;48.202;16.274;2023-09-30T02:48:18;19.80;93.50
49124;DHT22;48506;48.202;16.274;2023-09-30T02:50:45;19.90;93.40
49124;DHT22;48506;48.202;16.274;2023-09-30T02:53:12;20.00;93.20
49124;DHT22;48506;48.202;16.274;2023-09-30T02:55:39;20.10;93.10
49124;DHT22;48506;48.202;16.274;2023-09-30T02:58:06;20.10;93.20
49124;DHT22;48506;48.202;16.274;2023-09-30T03:00:36;20.20;93.20
49124;DHT22;48506;48.202;16.274;2023-09-30T03:03:04;20.30;93.20
49124;DHT22;48506;48.202;16.274;2023-09-30T03:05:30;20.30;93.20
49124;DHT22;48506;48.202;16.274;2023-09-30T03:07:59;20.40;93.20
49124;DHT22;48506;48.202;16.274;2023-09-30T03:10:27;20.40;93.20
49124;DHT22;48506;48.202;16.274;2023-09-30T03:12:53;20.50;93.20
49124;DHT22;48506;48.202;16.274;2023-09-30T03:15:19;20.50;93.10
49124;DHT22;48506;48.202;16.274;2023-09-30T03:17:45;20.50;93.10
49124;DHT22;48506;48.202;16.274;2023-09-30T03:20:12;20.60;93.10
49124;DHT22;48506;48.202;16.274;2023-09-30T03:22:45;20.60;93.20
49124;DHT22;48506;48.202;16.274;2023-09-30T03:25:14;20.60;93.20
49124;DHT22;48506;48.202;16.274;2023-09-30T03:27:44;20.60;93.30
49124;DHT22;48506;48.202;16.274;2023-09-30T03:30:13;20.60;93.30
49124;DHT22;48506;48.202;16.274;2023-09-30T03:32:42;20.70;93.30
49124;DHT22;48506;48.202;16.274;2023-09-30T03:35:10;20.70;93.20
49124;DHT22;48506;48.202;16.274;2023-09-30T03:37:37;20.70;93.10
49124;DHT22;48506;48.202;16.274;2023-09-30T03:40:03;20.70;93.20
49124;DHT22;48506;48.202;16.274;2023-09-30T03:42:38;20.70;93.20
49124;DHT22;48506;48.202;16.274;2023-09-30T03:45:06;20.80;93.40
49124;DHT22;48506;48.202;16.274;2023-09-30T03:47:39;20.80;93.70
49124;DHT22;48506;48.202;16.274;2023-09-30T03:50:06;20.70;93.90
49124;DHT22;48506;48.202;16.274;2023-09-30T03:52:41;20.70;94.40
49124;DHT22;48506;48.202;16.274;2023-09-30T03:55:11;20.70;95.00
49124;DHT22;48506;48.202;16.274;2023-09-30T03:57:38;20.50;95.30
49124;DHT22;48506;48.202;16.274;2023-09-30T04:00:05;20.50;95.50
49124;DHT22;48506;48.202;16.274;2023-09-30T04:02:35;20.50;95.70
49124;DHT22;48506;48.202;16.274;2023-09-30T04:05:01;20.50;95.90
49124;DHT22;48506;48.202;16.274;2023-09-30T04:07:31;20.40;95.90
49124;DHT22;48506;48.202;16.274;2023-09-30T04:09:58;20.40;96.10
49124;DHT22;48506;48.202;16.274;2023-09-30T04:12:27;20.40;96.10
49124;DHT22;48506;48.202;16.274;2023-09-30T04:14:54;20.40;96.20
49124;DHT22;48506;48.202;16.274;2023-09-30T04:17:20;20.30;96.30
49124;DHT22;48506;48.202;16.274;2023-09-30T04:19:48;20.30;96.30
49124;DHT22;48506;48.202;16.274;2023-09-30T04:22:17;20.30;96.40
49124;DHT22;48506;48.202;16.274;2023-09-30T04:24:45;20.20;96.70
49124;DHT22;48506;48.202;16.274;2023-09-30T04:27:11;20.20;96.70
49124;DHT22;48506;48.202;16.274;2023-09-30T04:29:38;20.10;96.80
49124;DHT22;48506;48.202;16.274;2023-09-30T04:32:04;20.10;96.70
49124;DHT22;48506;48.202;16.274;2023-09-30T04:34:32;20.10;96.70
49124;DHT22;48506;48.202;16.274;2023-09-30T04:36:58;20.10;96.90
49124;DHT22;48506;48.202;16.274;2023-09-30T04:39:25;20.10;97.40
49124;DHT22;48506;48.202;16.274;2023-09-30T04:41:51;20.00;97.60
49124;DHT22;48506;48.202;16.274;2023-09-30T04:44:18;19.90;97.70
49124;DHT22;48506;48.202;16.274;2023-09-30T04:46:43;19.80;97.90
49124;DHT22;48506;48.202;16.274;2023-09-30T04:49:15;19.80;98.00
49124;DHT22;48506;48.202;16.274;2023-09-30T04:51:41;19.80;98.10
49124;DHT22;48506;48.202;16.274;2023-09-30T04:54:08;19.80;98.10
49124;DHT22;48506;48.202;16.274;2023-09-30T04:56:37;19.70;98.30
49124;DHT22;48506;48.202;16.274;2023-09-30T04:59:05;19.80;98.20
49124;DHT22;48506;48.202;16.274;2023-09-30T05:01:32;19.70;98.20
49124;DHT22;48506;48.202;16.274;2023-09-30T05:03:57;19.70;98.30
49124;DHT22;48506;48.202;16.274;2023-09-30T05:06:24;19.80;98.10
49124;DHT22;48506;48.202;16.274;2023-09-30T05:08:50;19.80;98.00
49124;DHT22;48506;48.202;16.274;2023-09-30T05:11:16;19.80;98.00
49124;DHT22;48506;48.202;16.274;2023-09-30T05:13:42;19.80;98.00
49124;DHT22;48506;48.202;16.274;2023-09-30T05:16:09;19.80;98.00
49124;DHT22;48506;48.202;16.274;2023-09-30T05:18:35;19.80;98.00
49124;DHT22;48506;48.202;16.274;2023-09-30T05:21:02;19.80;97.90
49124;DHT22;48506;48.202;16.274;2023-09-30T05:23:29;19.80;98.00
49124;DHT22;48506;48.202;16.274;2023-09-30T05:25:55;19.80;97.90
49124;DHT22;48506;48.202;16.274;2023-09-30T05:28:21;19.80;97.80
49124;DHT22;48506;48.202;16.274;2023-09-30T05:30:47;19.80;97.80
49124;DHT22;48506;48.202;16.274;2023-09-30T05:33:13;19.80;97.80
49124;DHT22;48506;48.202;16.274;2023-09-30T05:35:43;19.80;97.60
49124;DHT22;48506;48.202;16.274;2023-09-30T05:38:10;19.80;97.50
49124;DHT22;48506;48.202;16.274;2023-09-30T05:40:36;19.80;97.40
49124;DHT22;48506;48.202;16.274;2023-09-30T05:43:02;19.90;97.30
49124;DHT22;48506;48.202;16.274;2023-09-30T05:45:32;19.90;97.10
49124;DHT22;48506;48.202;16.274;2023-09-30T05:48:04;19.80;97.20
49124;DHT22;48506;48.202;16.274;2023-09-30T05:50:35;19.90;97.00
49124;DHT22;48506;48.202;16.274;2023-09-30T05:53:02;19.90;96.90
49124;DHT22;48506;48.202;16.274;2023-09-30T05:55:31;20.00;96.80
49124;DHT22;48506;48.202;16.274;2023-09-30T05:57:57;20.00;96.60
49124;DHT22;48506;48.202;16.274;2023-09-30T06:00:23;20.00;96.60
49124;DHT22;48506;48.202;16.274;2023-09-30T06:02:55;20.00;96.40
49124;DHT22;48506;48.202;16.274;2023-09-30T06:05:21;20.10;96.20
49124;DHT22;48506;48.202;16.274;2023-09-30T06:07:52;20.10;96.30
49124;DHT22;48506;48.202;16.274;2023-09-30T06:10:19;20.20;96.00
49124;DHT22;48506;48.202;16.274;2023-09-30T06:12:47;20.20;95.90
49124;DHT22;48506;48.202;16.274;2023-09-30T06:15:16;20.30;95.80
49124;DHT22;48506;48.202;16.274;2023-09-30T06:17:49;20.30;95.60
49124;DHT22;48506;48.202;16.274;2023-09-30T06:20:16;20.20;95.60
49124;DHT22;48506;48.202;16.274;2023-09-30T06:22:44;20.20;95.70
49124;DHT22;48506;48.202;16.274;2023-09-30T06:25:15;20.30;95.40
49124;DHT22;48506;48.202;16.274;2023-09-30T06:27:43;20.30;95.30
49124;DHT22;48506;48.202;16.274;2023-09-30T06:30:10;20.20;95.40
49124;DHT22;48506;48.202;16.274;2023-09-30T06:32:37;20.30;95.40
49124;DHT22;48506;48.202;16.274;2023-09-30T06:35:04;20.30;95.40
49124;DHT22;48506;48.202;16.274;2023-09-30T06:37:32;20.40;95.40
49124;DHT22;48506;48.202;16.274;2023-09-30T06:39:58;20.40;95.20
49124;DHT22;48506;48.202;16.274;2023-09-30T06:42:27;20.40;95.20
49124;DHT22;48506;48.202;16.274;2023-09-30T06:44:53;20.40;95.20
49124;DHT22;48506;48.202;16.274;2023-09-30T06:47:19;20.40;95.10
49124;DHT22;48506;48.202;16.274;2023-09-30T06:49:47;20.50;95.00
49124;DHT22;48506;48.202;16.274;2023-09-30T06:52:13;20.50;94.90
49124;DHT22;48506;48.202;16.274;2023-09-30T06:54:39;20.50;94.90
49124;DHT22;48506;48.202;16.274;2023-09-30T06:57:05;20.50;95.00
49124;DHT22;48506;48.202;16.274;2023-09-30T06:59:34;20.60;95.00
49124;DHT22;48506;48.202;16.274;2023-09-30T07:02:00;20.70;94.80
49124;DHT22;48506;48.202;16.274;2023-09-30T07:04:26;20.80;94.70
49124;DHT22;48506;48.202;16.274;2023-09-30T07:06:55;20.80;94.70
49124;DHT22;48506;48.202;16.274;2023-09-30T07:09:21;20.80;94.70
49124;DHT22;48506;48.202;16.274;2023-09-30T07:11:46;20.90;94.70
49124;DHT22;48506;48.202;16.274;2023-09-30T07:14:15;21.10;94.40
49124;DHT22;48506;48.202;16.274;2023-09-30T07:16:41;21.20;94.40
49124;DHT22;48506;48.202;16.274;2023-09-30T07:19:07;21.40;93.90
49124;DHT22;48506;48.202;16.274;2023-09-30T07:21:33;21.50;93.50
49124;DHT22;48506;48.202;16.274;2023-09-30T07:23:58;21.40;93.40
49124;DHT22;48506;48.202;16.274;2023-09-30T07:26:25;21.40;93.50
49124;DHT22;48506;48.202;16.274;2023-09-30T07:28:53;21.30;93.60
49124;DHT22;48506;48.202;16.274;2023-09-30T07:31:22;21.30;93.60
49124;DHT22;48506;48.202;16.274;2023-09-30T07:33:49;21.30;93.80
49124;DHT22;48506;48.202;16.274;2023-09-30T07:36:19;21.30;93.80
49124;DHT22;48506;48.202;16.274;2023-09-30T07:38:45;21.40;93.60
49124;DHT22;48506;48.202;16.274;2023-09-30T07:41:13;21.50;93.60
49124;DHT22;48506;48.202;16.274;2023-09-30T07:43:39;21.50;93.50
49124;DHT22;48506;48.202;16.274;2023-09-30T07:46:06;21.50;93.60
49124;DHT22;48506;48.202;16.274;2023-09-30T07:48:34;21.70;93.50
49124;DHT22;48506;48.202;16.274;2023-09-30T07:51:01;21.80;92.90
49124;DHT22;48506;48.202;16.274;2023-09-30T07:53:28;22.00;92.90
49124;DHT22;48506;48.202;16.274;2023-09-30T07:55:54;22.20;92.60
49124;DHT22;48506;48.202;16.274;2023-09-30T07:58:21;22.30;92.30
49124;DHT22;48506;48.202;16.274;2023-09-30T08:00:47;22.50;92.30
49124;DHT22;48506;48.202;16.274;2023-09-30T08:03:13;22.70;92.10
49124;DHT22;48506;48.202;16.274;2023-09-30T08:05:39;22.90;91.90
49124;DHT22;48506;48.202;16.274;2023-09-30T08:08:06;23.00;91.50
49124;DHT22;48506;48.202;16.274;2023-09-30T08:10:32;23.00;91.10
49124;DHT22;48506;48.202;16.274;2023-09-30T08:12:58;22.90;91.10
49124;DHT22;48506;48.202;16.274;2023-09-30T08:15:28;22.70;91.10
49124;DHT22;48506;48.202;16.274;2023-09-30T08:17:54;22.60;91.20
49124;DHT22;48506;48.202;16.274;2023-09-30T08:20:20;22.50;91.40
49124;DHT22;48506;48.202;16.274;2023-09-30T08:22:46;22.70;92.00
49124;DHT22;48506;48.202;16.274;2023-09-30T08:25:13;22.80;91.10
49124;DHT22;48506;48.202;16.274;2023-09-30T08:27:39;22.90;90.90
49124;DHT22;48506;48.202;16.274;2023-09-30T08:30:06;23.00;90.60
49124;DHT22;48506;48.202;16.274;2023-09-30T08:32:36;23.10;90.70
49124;DHT22;48506;48.202;16.274;2023-09-30T08:35:03;23.20;90.50
49124;DHT22;48506;48.202;16.274;2023-09-30T08:37:30;23.10;90.50
49124;DHT22;48506;48.202;16.274;2023-09-30T08:39:57;23.10;90.30
49124;DHT22;48506;48.202;16.274;2023-09-30T08:42:23;23.10;90.50
49124;DHT22;48506;48.202;16.274;2023-09-30T08:44:53;23.20;90.40
49124;DHT22;48506;48.202;16.274;2023-09-30T08:47:21;23.40;90.60
49124;DHT22;48506;48.202;16.274;2023-09-30T08:49:50;23.70;90.10
49124;DHT22;48506;48.202;16.274;2023-09-30T08:52:22;23.90;88.10
49124;DHT22;48506;48.202;16.274;2023-09-30T08:54:48;24.00;88.80
49124;DHT22;48506;48.202;16.274;2023-09-30T08:57:16;24.10;87.80
49124;DHT22;48506;48.202;16.274;2023-09-30T08:59:46;24.00;87.90
49124;DHT22;48506;48.202;16.274;2023-09-30T09:02:16;24.00;88.70
49124;DHT22;48506;48.202;16.274;2023-09-30T09:04:42;23.90;87.90
49124;DHT22;48506;48.202;16.274;2023-09-30T09:07:09;23.90;88.00
49124;DHT22;48506;48.202;16.274;2023-09-30T09:09:35;23.80;88.20
49124;DHT22;48506;48.202;16.274;2023-09-30T09:12:01;23.90;88.50
49124;DHT22;48506;48.202;16.274;2023-09-30T09:14:42;24.00;88.10
49124;DHT22;48506;48.202;16.274;2023-09-30T09:17:12;24.00;87.70
49124;DHT22;48506;48.202;16.274;2023-09-30T09:19:39;23.80;87.90
49124;DHT22;48506;48.202;16.274;2023-09-30T09:22:05;23.70;87.60
49124;DHT22;48506;48.202;16.274;2023-09-30T09:24:37;23.60;88.10
49124;DHT22;48506;48.202;16.274;2023-09-30T09:27:12;23.40;88.30
49124;DHT22;48506;48.202;16.274;2023-09-30T09:29:41;23.30;88.70
49124;DHT22;48506;48.202;16.274;2023-09-30T09:34:41;23.10;90.00
49124;DHT22;48506;48.202;16.274;2023-09-30T09:37:19;23.10;89.80
49124;DHT22;48506;48.202;16.274;2023-09-30T09:40:05;23.00;89.80
49124;DHT22;48506;48.202;16.274;2023-09-30T09:42:33;23.00;89.90
49124;DHT22;48506;48.202;16.274;2023-09-30T09:45:04;22.80;90.10
49124;DHT22;48506;48.202;16.274;2023-09-30T09:47:32;22.70;90.00
49124;DHT22;48506;48.202;16.274;2023-09-30T09:49:59;22.50;90.30
49124;DHT22;48506;48.202;16.274;2023-09-30T09:52:27;22.50;90.30
49124;DHT22;48506;48.202;16.274;2023-09-30T09:54:55;22.40;90.50
49124;DHT22;48506;48.202;16.274;2023-09-30T09:57:24;22.50;90.60
49124;DHT22;48506;48.202;16.274;2023-09-30T09:59:53;22.50;90.80
49124;DHT22;48506;48.202;16.274;2023-09-30T10:02:21;22.70;90.50
49124;DHT22;48506;48.202;16.274;2023-09-30T10:04:48;22.70;90.30
49124;DHT22;48506;48.202;16.274;2023-09-30T10:07:25;22.70;90.50
49124;DHT22;48506;48.202;16.274;2023-09-30T10:09:53;22.80;90.60
49124;DHT22;48506;48.202;16.274;2023-09-30T10:12:24;22.90;90.50
49124;DHT22;48506;48.202;16.274;2023-09-30T10:14:52;23.00;90.40
49124;DHT22;48506;48.202;16.274;2023-09-30T10:17:19;23.10;90.40
49124;DHT22;48506;48.202;16.274;2023-09-30T10:20:04;23.20;90.00
49124;DHT22;48506;48.202;16.274;2023-09-30T10:22:35;23.40;90.30
49124;DHT22;48506;48.202;16.274;2023-09-30T10:25:32;23.50;89.40
49124;DHT22;48506;48.202;16.274;2023-09-30T10:27:59;23.50;89.20
49124;DHT22;48506;48.202;16.274;2023-09-30T10:30:25;23.50;89.60
49124;DHT22;48506;48.202;16.274;2023-09-30T10:35:42;23.50;89.60
49124;DHT22;48506;48.202;16.274;2023-09-30T10:40:51;23.40;90.00
49124;DHT22;48506;48.202;16.274;2023-09-30T10:43:37;23.40;90.00
49124;DHT22;48506;48.202;16.274;2023-09-30T10:48:49;23.30;89.80
49124;DHT22;48506;48.202;16.274;2023-09-30T10:51:16;23.40;90.10
49124;DHT22;48506;48.202;16.274;2023-09-30T10:53:53;23.70;90.00
49124;DHT22;48506;48.202;16.274;2023-09-30T10:56:23;24.00;89.90
49124;DHT22;48506;48.202;16.274;2023-09-30T10:58:52;24.20;88.40
49124;DHT22;48506;48.202;16.274;2023-09-30T11:01:20;24.20;87.80
49124;DHT22;48506;48.202;16.274;2023-09-30T11:03:47;24.10;88.30
49124;DHT22;48506;48.202;16.274;2023-09-30T11:06:20;24.10;88.40
49124;DHT22;48506;48.202;16.274;2023-09-30T11:08:57;24.00;89.00
49124;DHT22;48506;48.202;16.274;2023-09-30T11:12:12;23.80;87.90
49124;DHT22;48506;48.202;16.274;2023-09-30T11:14:31;23.60;88.50
49124;DHT22;48506;48.202;16.274;2023-09-30T11:16:59;23.40;88.70
49124;DHT22;48506;48.202;16.274;2023-09-30T11:19:35;23.40;89.20
49124;DHT22;48506;48.202;16.274;2023-09-30T11:22:01;23.20;89.60
49124;DHT22;48506;48.202;16.274;2023-09-30T11:24:27;23.10;89.60
49124;DHT22;48506;48.202;16.274;2023-09-30T11:26:55;23.10;89.80
49124;DHT22;48506;48.202;16.274;2023-09-30T11:29:22;23.00;89.80
49124;DHT22;48506;48.202;16.274;2023-09-30T11:31:49;23.00;90.00
49124;DHT22;48506;48.202;16.274;2023-09-30T11:34:17;23.10;90.00
49124;DHT22;48506;48.202;16.274;2023-09-30T11:36:49;23.30;89.80
49124;DHT22;48506;48.202;16.274;2023-09-30T11:39:23;23.40;89.30
49124;DHT22;48506;48.202;16.274;2023-09-30T11:41:51;23.50;88.90
49124;DHT22;48506;48.202;16.274;2023-09-30T11:44:18;23.50;88.90
49124;DHT22;48506;48.202;16.274;2023-09-30T11:47:01;23.60;89.00
49124;DHT22;48506;48.202;16.274;2023-09-30T11:49:40;23.50;89.30
49124;DHT22;48506;48.202;16.274;2023-09-30T11:52:11;23.40;89.20
49124;DHT22;48506;48.202;16.274;2023-09-30T11:54:40;23.40;89.40
49124;DHT22;48506;48.202;16.274;2023-09-30T11:57:11;23.40;89.10
49124;DHT22;48506;48.202;16.274;2023-09-30T11:59:38;23.40;89.40
49124;DHT22;48506;48.202;16.274;2023-09-30T12:02:08;23.40;90.00
49124;DHT22;48506;48.202;16.274;2023-09-30T12:04:37;23.40;89.50
49124;DHT22;48506;48.202;16.274;2023-09-30T12:07:05;23.30;89.60
49124;DHT22;48506;48.202;16.274;2023-09-30T12:09:35;23.30;89.20
49124;DHT22;48506;48.202;16.274;2023-09-30T12:12:03;23.30;89.50
49124;DHT22;48506;48.202;16.274;2023-09-30T12:14:30;23.30;89.10
49124;DHT22;48506;48.202;16.274;2023-09-30T12:16:59;23.30;89.20
49124;DHT22;48506;48.202;16.274;2023-09-30T12:19:24;23.40;90.00
49124;DHT22;48506;48.202;16.274;2023-09-30T12:21:52;23.50;89.30
49124;DHT22;48506;48.202;16.274;2023-09-30T12:24:19;23.60;89.00
49124;DHT22;48506;48.202;16.274;2023-09-30T12:26:50;23.60;88.60
49124;DHT22;48506;48.202;16.274;2023-09-30T12:29:19;23.70;89.20
49124;DHT22;48506;48.202;16.274;2023-09-30T12:31:46;23.70;88.60
49124;DHT22;48506;48.202;16.274;2023-09-30T12:34:14;23.70;88.00
49124;DHT22;48506;48.202;16.274;2023-09-30T12:36:41;23.50;87.60
49124;DHT22;48506;48.202;16.274;2023-09-30T12:39:09;23.50;88.00
49124;DHT22;48506;48.202;16.274;2023-09-30T12:41:39;23.40;87.90
49124;DHT22;48506;48.202;16.274;2023-09-30T12:44:06;23.40;88.10
49124;DHT22;48506;48.202;16.274;2023-09-30T12:46:33;23.30;88.40
49124;DHT22;48506;48.202;16.274;2023-09-30T12:49:05;23.30;88.40
49124;DHT22;48506;48.202;16.274;2023-09-30T12:51:32;23.30;88.60
49124;DHT22;48506;48.202;16.274;2023-09-30T12:53:59;23.40;89.00
49124;DHT22;48506;48.202;16.274;2023-09-30T12:56:26;23.40;88.20
49124;DHT22;48506;48.202;16.274;2023-09-30T12:58:52;23.50;87.30
49124;DHT22;48506;48.202;16.274;2023-09-30T13:01:19;23.70;86.60
49124;DHT22;48506;48.202;16.274;2023-09-30T13:03:46;23.70;87.00
49124;DHT22;48506;48.202;16.274;2023-09-30T13:06:13;23.90;87.60
49124;DHT22;48506;48.202;16.274;2023-09-30T13:08:39;24.00;87.40
49124;DHT22;48506;48.202;16.274;2023-09-30T13:11:05;24.10;86.60
49124;DHT22;48506;48.202;16.274;2023-09-30T13:13:32;24.10;85.20
49124;DHT22;48506;48.202;16.274;2023-09-30T13:15:59;24.10;86.10
49124;DHT22;48506;48.202;16.274;2023-09-30T13:18:25;24.20;86.00
49124;DHT22;48506;48.202;16.274;2023-09-30T13:20:51;24.30;86.70
49124;DHT22;48506;48.202;16.274;2023-09-30T13:23:18;24.40;86.80
49124;DHT22;48506;48.202;16.274;2023-09-30T13:25:45;24.50;85.40
49124;DHT22;48506;48.202;16.274;2023-09-30T13:28:11;24.50;85.00
49124;DHT22;48506;48.202;16.274;2023-09-30T13:30:37;24.50;84.50
49124;DHT22;48506;48.202;16.274;2023-09-30T13:33:03;24.40;83.90
49124;DHT22;48506;48.202;16.274;2023-09-30T13:35:30;24.40;84.40
49124;DHT22;48506;48.202;16.274;2023-09-30T13:37:56;24.30;85.00
49124;DHT22;48506;48.202;16.274;2023-09-30T13:40:21;24.30;84.20
49124;DHT22;48506;48.202;16.274;2023-09-30T13:42:48;24.30;84.50
49124;DHT22;48506;48.202;16.274;2023-09-30T13:45:14;24.20;84.40
49124;DHT22;48506;48.202;16.274;2023-09-30T13:47:43;24.20;85.20
49124;DHT22;48506;48.202;16.274;2023-09-30T13:50:10;24.30;85.60
49124;DHT22;48506;48.202;16.274;2023-09-30T13:52:36;24.30;84.70
49124;DHT22;48506;48.202;16.274;2023-09-30T13:55:03;24.20;84.10
49124;DHT22;48506;48.202;16.274;2023-09-30T13:57:30;24.20;84.70
49124;DHT22;48506;48.202;16.274;2023-09-30T13:59:57;24.10;84.40
49124;DHT22;48506;48.202;16.274;2023-09-30T14:02:23;24.10;84.70
49124;DHT22;48506;48.202;16.274;2023-09-30T14:04:49;23.90;85.10
49124;DHT22;48506;48.202;16.274;2023-09-30T14:07:15;23.80;87.50
49124;DHT22;48506;48.202;16.274;2023-09-30T14:09:44;23.60;89.70
49124;DHT22;48506;48.202;16.274;2023-09-30T14:12:10;23.40;90.40
49124;DHT22;48506;48.202;16.274;2023-09-30T14:14:38;23.10;91.50
49124;DHT22;48506;48.202;16.274;2023-09-30T14:17:04;23.00;92.50
49124;DHT22;48506;48.202;16.274;2023-09-30T14:19:36;22.70;92.40
49124;DHT22;48506;48.202;16.274;2023-09-30T14:22:04;22.50;93.10
49124;DHT22;48506;48.202;16.274;2023-09-30T14:24:35;22.40;93.70
49124;DHT22;48506;48.202;16.274;2023-09-30T14:27:02;22.30;94.20
49124;DHT22;48506;48.202;16.274;2023-09-30T14:29:32;22.20;94.00
49124;DHT22;48506;48.202;16.274;2023-09-30T14:31:58;22.20;94.40
49124;DHT22;48506;48.202;16.274;2023-09-30T14:34:24;22.20;94.90
49124;DHT22;48506;48.202;16.274;2023-09-30T14:36:52;22.20;95.30
49124;DHT22;48506;48.202;16.274;2023-09-30T14:39:18;22.20;95.40
49124;DHT22;48506;48.202;16.274;2023-09-30T14:41:45;22.20;95.10
49124;DHT22;48506;48.202;16.274;2023-09-30T14:44:12;22.20;95.20
49124;DHT22;48506;48.202;16.274;2023-09-30T14:46:39;22.10;95.30
49124;DHT22;48506;48.202;16.274;2023-09-30T14:49:06;22.10;95.70
49124;DHT22;48506;48.202;16.274;2023-09-30T14:51:33;22.20;96.00
49124;DHT22;48506;48.202;16.274;2023-09-30T14:53:59;22.20;96.10
49124;DHT22;48506;48.202;16.274;2023-09-30T14:56:26;22.20;96.20
49124;DHT22;48506;48.202;16.274;2023-09-30T14:58:52;22.20;96.00
49124;DHT22;48506;48.202;16.274;2023-09-30T15:01:18;22.20;96.10
49124;DHT22;48506;48.202;16.274;2023-09-30T15:03:46;22.30;95.50
49124;DHT22;48506;48.202;16.274;2023-09-30T15:06:12;22.30;95.90
49124;DHT22;48506;48.202;16.274;2023-09-30T15:08:39;22.40;95.90
49124;DHT22;48506;48.202;16.274;2023-09-30T15:11:10;22.40;95.70
49124;DHT22;48506;48.202;16.274;2023-09-30T15:13:38;22.40;95.40
49124;DHT22;48506;48.202;16.274;2023-09-30T15:16:04;22.40;95.00
49124;DHT22;48506;48.202;16.274;2023-09-30T15:18:31;22.30;95.20
49124;DHT22;48506;48.202;16.274;2023-09-30T15:20:57;22.30;95.30
49124;DHT22;48506;48.202;16.274;2023-09-30T15:23:23;22.30;94.90
49124;DHT22;48506;48.202;16.274;2023-09-30T15:25:49;22.20;93.80
49124;DHT22;48506;48.202;16.274;2023-09-30T15:28:15;22.10;94.40
49124;DHT22;48506;48.202;16.274;2023-09-30T15:30:42;22.10;94.70
49124;DHT22;48506;48.202;16.274;2023-09-30T15:33:08;22.10;94.80